Time;durP1;ratioP1;P1;durP2;ratioP2;P2;SDS_P1;SDS_P2;PMS_P1;PMS_P2;Temp;Humidity;BMP_temperature;BMP_pressure;BME280_temperature;BME280_humidity;BME280_pressure;Samples;Min_cycle;Max_cycle;Signal;HPM_P1;HPM_P2
2021/08/16 00:02:06;;;;;;;12.70;7.38;;;717.50;1228.80;;;;;;5093786;28;20020;-77
2021/08/16 00:04:32;;;;;;;11.55;8.02;;;717.50;1228.80;;;;;;5094086;28;20358;-76
2021/08/16 00:06:59;;;;;;;13.55;7.47;;;717.50;1228.80;;;;;;5093725;28;20056;-76
2021/08/16 00:09:25;;;;;;;10.32;6.82;;;717.50;1228.80;;;;;;5092463;28;20073;-77
2021/08/16 00:11:51;;;;;;;12.43;8.00;;;717.50;1254.40;;;;;;5093573;28;20044;-76
2021/08/16 00:14:17;;;;;;;11.07;7.63;;;717.40;1254.40;;;;;;5093647;28;20461;-77
2021/08/16 00:16:43;;;;;;;15.50;7.60;;;717.40;1254.40;;;;;;5093713;28;20055;-76
2021/08/16 00:19:09;;;;;;;13.55;7.97;;;717.40;1254.40;;;;;;5092421;28;20020;-76
2021/08/16 00:21:35;;;;;;;14.55;8.38;;;717.30;1254.40;;;;;;5092365;28;20069;-76
2021/08/16 00:24:00;;;;;;;11.13;7.68;;;717.30;1254.40;;;;;;5092053;28;20082;-76
2021/08/16 00:26:26;;;;;;;11.90;7.20;;;717.30;1254.40;;;;;;5093622;28;20062;-76
2021/08/16 00:28:52;;;;;;;10.65;7.85;;;717.30;1254.40;;;;;;5093616;28;20024;-76
2021/08/16 00:31:18;;;;;;;13.27;7.40;;;717.30;1254.40;;;;;;5093696;28;20054;-76
2021/08/16 00:33:44;;;;;;;12.98;7.28;;;717.30;1254.40;;;;;;5092243;28;20034;-76
2021/08/16 00:36:10;;;;;;;12.38;7.65;;;717.20;1280.00;;;;;;5092192;28;20115;-76
2021/08/16 00:38:36;;;;;;;14.63;8.40;;;717.20;1280.00;;;;;;5092179;28;20035;-76
2021/08/16 00:41:02;;;;;;;13.55;7.70;;;717.20;1254.40;;;;;;5092157;28;20124;-76
2021/08/16 00:43:28;;;;;;;16.45;8.48;;;717.10;1280.00;;;;;;5092080;28;20040;-77
2021/08/16 00:45:54;;;;;;;10.85;7.88;;;717.10;1280.00;;;;;;5093638;28;20031;-76
2021/08/16 00:48:20;;;;;;;13.70;7.75;;;717.00;1280.00;;;;;;5093435;28;20503;-76
2021/08/16 00:50:46;;;;;;;14.57;8.30;;;717.00;1280.00;;;;;;5093391;28;20052;-77
2021/08/16 00:53:15;;;;;;;14.23;7.75;;;717.00;1280.00;;;;;;5109082;28;20081;-77
2021/08/16 00:55:41;;;;;;;13.43;8.23;;;717.00;1280.00;;;;;;5092132;28;20036;-77
2021/08/16 00:58:06;;;;;;;20.20;9.00;;;716.90;1305.60;;;;;;5093381;28;20028;-77
2021/08/16 01:00:32;;;;;;;11.70;8.13;;;716.90;1305.60;;;;;;5093377;28;20020;-76
2021/08/16 01:02:59;;;;;;;11.23;8.63;;;716.90;1305.60;;;;;;5093187;28;20115;-77
2021/08/16 01:05:25;;;;;;;15.02;8.50;;;716.90;1305.60;;;;;;5093504;28;20031;-76
2021/08/16 01:07:51;;;;;;;11.02;8.02;;;716.90;1305.60;;;;;;5091889;28;20024;-77
2021/08/16 01:10:20;;;;;;;12.05;8.38;;;716.90;1305.60;;;;;;5093195;28;20020;-77
2021/08/16 01:12:46;;;;;;;13.85;8.50;;;716.80;1305.60;;;;;;5091566;28;20075;-77
2021/08/16 01:15:13;;;;;;;12.10;8.05;;;716.80;1305.60;;;;;;5093424;28;20027;-76
2021/08/16 01:17:41;;;;;;;10.55;8.10;;;716.80;1305.60;;;;;;5091852;28;20024;-76
2021/08/16 01:20:08;;;;;;;13.88;8.43;;;716.80;1305.60;;;;;;5091837;28;20472;-77
2021/08/16 01:22:35;;;;;;;13.52;8.48;;;716.80;1305.60;;;;;;5092939;28;20033;-77
2021/08/16 01:25:04;;;;;;;16.58;8.70;;;692.10;1280.00;;;;;;5091855;28;20020;-77
2021/08/16 01:27:30;;;;;;;11.95;8.65;;;692.10;1280.00;;;;;;5092991;28;20099;-76
2021/08/16 01:29:58;;;;;;;13.05;8.80;;;692.00;1280.00;;;;;;5091659;28;20120;-76
2021/08/16 01:32:24;;;;;;;10.77;7.55;;;692.10;1280.00;;;;;;5091653;28;20028;-77
2021/08/16 01:34:50;;;;;;;10.35;7.13;;;692.10;1280.00;;;;;;5092879;28;20020;-76
2021/08/16 01:37:16;;;;;;;11.77;8.43;;;692.10;1280.00;;;;;;5093955;28;20054;-76
2021/08/16 01:39:41;;;;;;;17.88;7.78;;;692.00;1280.00;;;;;;5095346;28;20115;-76
2021/08/16 01:42:07;;;;;;;10.95;7.55;;;692.00;1280.00;;;;;;5096388;28;20024;-76
2021/08/16 01:44:33;;;;;;;14.48;8.90;;;692.00;1280.00;;;;;;5095162;28;20032;-77
2021/08/16 01:46:59;;;;;;;23.45;8.07;;;692.00;1280.00;;;;;;5095016;28;20107;-75
2021/08/16 01:49:25;;;;;;;18.20;8.02;;;692.00;1280.00;;;;;;5095029;28;20032;-76
2021/08/16 01:51:51;;;;;;;12.77;7.90;;;691.90;1280.00;;;;;;5096287;28;20016;-76
2021/08/16 01:54:18;;;;;;;11.80;8.13;;;691.90;1280.00;;;;;;5094984;28;20388;-76
2021/08/16 01:56:45;;;;;;;13.48;7.00;;;691.90;1280.00;;;;;;5094936;28;20024;-76
2021/08/16 01:59:11;;;;;;;9.55;6.97;;;691.70;1280.00;;;;;;5094819;28;20031;-75
2021/08/16 02:01:37;;;;;;;10.85;7.50;;;692.00;1280.00;;;;;;5094792;28;20024;-76
2021/08/16 02:04:03;;;;;;;12.82;7.70;;;692.00;1280.00;;;;;;5094680;28;20036;-76
2021/08/16 02:06:29;;;;;;;11.57;7.47;;;692.00;1280.00;;;;;;5096003;28;20031;-76
2021/08/16 02:08:56;;;;;;;11.35;7.43;;;692.00;1254.40;;;;;;5096267;28;20028;-76
2021/08/16 02:11:23;;;;;;;8.52;6.82;;;692.00;1254.40;;;;;;5096175;28;20523;-76
2021/08/16 02:13:49;;;;;;;12.32;7.45;;;692.00;1254.40;;;;;;5095862;28;20086;-76
2021/08/16 02:16:15;;;;;;;13.65;7.90;;;691.90;1254.40;;;;;;5094507;28;20032;-76
2021/08/16 02:18:41;;;;;;;13.05;7.20;;;692.00;1254.40;;;;;;5095771;28;20016;-76
2021/08/16 02:21:07;;;;;;;11.23;7.22;;;692.00;1280.00;;;;;;5095951;28;20028;-76
2021/08/16 02:23:33;;;;;;;11.48;7.00;;;692.00;1254.40;;;;;;5095565;28;20032;-76
2021/08/16 02:25:59;;;;;;;9.23;7.40;;;692.00;1254.40;;;;;;5094312;28;20028;-76
2021/08/16 02:28:26;;;;;;;12.27;7.25;;;691.90;1280.00;;;;;;5095562;28;20093;-76
2021/08/16 02:30:52;;;;;;;13.15;7.25;;;692.00;1280.00;;;;;;5095500;28;20020;-76
2021/08/16 02:33:17;;;;;;;10.82;7.65;;;691.90;1254.40;;;;;;5094230;28;20038;-77
2021/08/16 02:35:44;;;;;;;13.43;7.93;;;691.90;1254.40;;;;;;5095719;28;20150;-77
2021/08/16 02:38:11;;;;;;;15.20;8.05;;;691.90;1280.00;;;;;;5095434;28;20353;-76
2021/08/16 02:40:38;;;;;;;11.60;7.50;;;691.90;1280.00;;;;;;5095597;28;20020;-76
2021/08/16 02:43:04;;;;;;;14.32;7.22;;;691.90;1280.00;;;;;;5095199;28;20399;-77
2021/08/16 02:45:31;;;;;;;11.25;6.97;;;691.90;1280.00;;;;;;5095241;28;20028;-76
2021/08/16 02:47:57;;;;;;;15.70;7.30;;;691.90;1254.40;;;;;;5095084;28;20023;-76
2021/08/16 02:50:23;;;;;;;13.25;7.40;;;691.90;1280.00;;;;;;5093911;28;20032;-76
2021/08/16 02:52:51;;;;;;;15.93;8.38;;;691.90;1280.00;;;;;;5095400;28;20047;-76
2021/08/16 02:55:17;;;;;;;10.40;7.28;;;691.90;1280.00;;;;;;5095047;28;20460;-77
2021/08/16 02:57:43;;;;;;;11.80;7.32;;;691.80;1280.00;;;;;;5093705;28;20396;-76
2021/08/16 03:00:10;;;;;;;15.63;7.28;;;691.80;1280.00;;;;;;5094967;28;20024;-76
2021/08/16 03:02:36;;;;;;;13.85;8.10;;;691.80;1280.00;;;;;;5094887;28;20028;-77
2021/08/16 03:05:04;;;;;;;13.82;7.53;;;691.80;1280.00;;;;;;5094909;28;20024;-76
2021/08/16 03:07:29;;;;;;;10.73;6.97;;;691.80;1280.00;;;;;;5093515;28;20531;-76
2021/08/16 03:09:55;;;;;;;10.82;7.30;;;691.80;1280.00;;;;;;5093525;28;20028;-77
2021/08/16 03:12:21;;;;;;;15.20;7.93;;;691.70;1280.00;;;;;;5093588;28;20370;-77
2021/08/16 03:14:47;;;;;;;12.05;7.50;;;691.80;1280.00;;;;;;5094991;28;20376;-77
2021/08/16 03:17:13;;;;;;;12.85;7.57;;;691.80;1280.00;;;;;;5094652;28;20111;-76
2021/08/16 03:19:39;;;;;;;12.48;7.60;;;691.80;1280.00;;;;;;5093307;28;20024;-77
2021/08/16 03:22:05;;;;;;;12.60;7.93;;;691.70;1280.00;;;;;;5093263;28;20024;-76
2021/08/16 03:24:32;;;;;;;11.73;7.18;;;691.70;1280.00;;;;;;5094432;28;20089;-76
2021/08/16 03:26:59;;;;;;;10.95;7.85;;;691.70;1280.00;;;;;;5094985;28;20016;-76
2021/08/16 03:29:25;;;;;;;13.02;7.45;;;691.70;1280.00;;;;;;5094382;28;20365;-76
2021/08/16 03:31:52;;;;;;;11.82;7.40;;;691.60;1280.00;;;;;;5093091;28;20020;-77
2021/08/16 03:34:19;;;;;;;16.55;7.78;;;691.50;1305.60;;;;;;5093063;28;20434;-77
2021/08/16 03:36:44;;;;;;;12.23;7.35;;;691.50;1305.60;;;;;;5094338;28;20379;-76
2021/08/16 03:39:10;;;;;;;14.32;7.57;;;691.50;1305.60;;;;;;5094195;28;20016;-76
2021/08/16 03:41:36;;;;;;;15.55;7.43;;;691.50;1305.60;;;;;;5094265;28;20028;-76
2021/08/16 03:44:03;;;;;;;10.82;7.78;;;691.50;1305.60;;;;;;5094039;28;20107;-77
2021/08/16 03:46:29;;;;;;;16.15;7.72;;;691.50;1331.20;;;;;;5094367;28;20024;-76
2021/08/16 03:48:55;;;;;;;24.42;8.60;;;691.50;1305.60;;;;;;5093987;28;20027;-76
2021/08/16 03:51:22;;;;;;;28.15;9.43;;;691.30;1356.80;;;;;;5092878;28;20024;-76
2021/08/16 03:53:48;;;;;;;18.92;9.30;;;666.50;1356.80;;;;;;5094012;28;20442;-76
2021/08/16 03:56:14;;;;;;;13.05;8.68;;;666.50;1356.80;;;;;;5094236;28;20107;-75
2021/08/16 03:58:41;;;;;;;16.15;8.50;;;666.40;1356.80;;;;;;5092278;28;20452;-75
2021/08/16 04:01:09;;;;;;;10.45;7.50;;;666.50;1356.80;;;;;;5092865;28;20080;-76
2021/08/16 04:03:35;;;;;;;13.68;8.02;;;666.40;1331.20;;;;;;5094049;28;20040;-74
2021/08/16 04:06:01;;;;;;;12.98;8.13;;;691.20;1331.20;;;;;;5093849;28;20482;-74
2021/08/16 04:08:27;;;;;;;26.27;8.07;;;691.20;1331.20;;;;;;5093737;28;20427;-76
2021/08/16 04:10:53;;;;;;;20.58;8.85;;;691.20;1305.60;;;;;;5093770;28;20012;-75
2021/08/16 04:13:19;;;;;;;15.45;7.82;;;691.20;1305.60;;;;;;5093491;28;20079;-75
2021/08/16 04:15:45;;;;;;;11.88;8.02;;;691.20;1305.60;;;;;;5093989;28;20028;-76
2021/08/16 04:18:10;;;;;;;12.05;7.70;;;691.30;1305.60;;;;;;5092431;28;20123;-75
2021/08/16 04:20:37;;;;;;;15.02;8.27;;;691.30;1305.60;;;;;;5093582;28;20016;-76
2021/08/16 04:23:03;;;;;;;10.27;8.60;;;691.30;1305.60;;;;;;5093520;28;20369;-76
2021/08/16 04:25:29;;;;;;;19.27;7.57;;;691.30;1305.60;;;;;;5092286;28;20028;-76
2021/08/16 04:27:54;;;;;;;10.75;7.55;;;691.30;1305.60;;;;;;5093562;28;20073;-75
2021/08/16 04:30:20;;;;;;;13.63;7.72;;;691.20;1305.60;;;;;;5093584;28;20016;-76
2021/08/16 04:32:46;;;;;;;13.32;7.93;;;691.20;1305.60;;;;;;5093519;28;20355;-76
2021/08/16 04:35:12;;;;;;;13.80;7.85;;;691.20;1305.60;;;;;;5093753;28;20028;-75
2021/08/16 04:37:40;;;;;;;10.23;8.35;;;691.20;1305.60;;;;;;5093460;28;20059;-77
2021/08/16 04:40:07;;;;;;;12.82;8.10;;;691.30;1305.60;;;;;;5093521;28;20039;-75
2021/08/16 04:42:33;;;;;;;13.25;7.95;;;691.20;1305.60;;;;;;5092104;28;20032;-76
2021/08/16 04:44:59;;;;;;;16.30;9.48;;;691.30;1331.20;;;;;;5092112;28;20039;-77
2021/08/16 04:47:25;;;;;;;14.13;9.35;;;691.30;1331.20;;;;;;5093438;28;20016;-76
2021/08/16 04:49:54;;;;;;;18.50;8.93;;;691.30;1331.20;;;;;;5092117;28;20082;-76
2021/08/16 04:52:20;;;;;;;17.80;9.55;;;691.30;1331.20;;;;;;5093333;28;20374;-75
2021/08/16 04:54:46;;;;;;;15.25;9.73;;;691.20;1331.20;;;;;;5093379;28;20021;-76
2021/08/16 04:57:12;;;;;;;17.45;9.20;;;691.30;1356.80;;;;;;5093332;28;20020;-76
2021/08/16 04:59:38;;;;;;;15.80;9.98;;;691.20;1356.80;;;;;;5092072;28;20447;-75
2021/08/16 05:02:04;;;;;;;16.92;10.00;;;691.30;1356.80;;;;;;5093243;28;20024;-76
2021/08/16 05:04:30;;;;;;;21.85;10.43;;;691.30;1356.80;;;;;;5093481;28;20102;-75
2021/08/16 05:06:55;;;;;;;16.42;10.68;;;691.20;1356.80;;;;;;5091946;28;20117;-75
2021/08/16 05:09:21;;;;;;;16.02;10.15;;;691.20;1356.80;;;;;;5093575;28;20081;-75
2021/08/16 05:11:47;;;;;;;13.70;9.35;;;691.30;1356.80;;;;;;5095172;28;20032;-75
2021/08/16 05:14:13;;;;;;;15.73;9.63;;;691.20;1356.80;;;;;;5097316;28;20438;-76
2021/08/16 05:16:41;;;;;;;23.25;10.32;;;691.30;1356.80;;;;;;5097027;28;20046;-76
2021/08/16 05:19:08;;;;;;;25.55;10.93;;;691.30;1356.80;;;;;;5096919;28;20024;-76
2021/08/16 05:21:34;;;;;;;21.80;10.43;;;691.30;1356.80;;;;;;5095596;28;20110;-76
2021/08/16 05:23:59;;;;;;;21.85;10.20;;;691.30;1356.80;;;;;;5097136;28;20456;-76
2021/08/16 05:26:25;;;;;;;27.27;10.77;;;691.40;1356.80;;;;;;5095532;28;20024;-75
2021/08/16 05:28:51;;;;;;;16.33;10.43;;;691.50;1356.80;;;;;;5096774;28;20055;-76
2021/08/16 05:31:17;;;;;;;20.83;10.68;;;691.40;1382.40;;;;;;5095496;28;20115;-76
2021/08/16 05:33:43;;;;;;;19.15;11.07;;;691.40;1382.40;;;;;;5096963;28;20410;-75
2021/08/16 05:36:09;;;;;;;29.15;10.35;;;691.50;1382.40;;;;;;5096686;28;20051;-76
2021/08/16 05:38:35;;;;;;;15.57;9.25;;;691.50;1382.40;;;;;;5096569;28;20016;-75
2021/08/16 05:41:01;;;;;;;14.98;8.85;;;691.50;1356.80;;;;;;5096500;28;20031;-76
2021/08/16 05:43:27;;;;;;;14.30;9.23;;;691.60;1382.40;;;;;;5096403;28;20036;-75
2021/08/16 05:45:53;;;;;;;14.23;9.63;;;691.60;1356.80;;;;;;5095076;28;20055;-75
2021/08/16 05:48:19;;;;;;;17.88;9.20;;;691.60;1382.40;;;;;;5096424;28;20031;-76
2021/08/16 05:50:45;;;;;;;13.68;8.93;;;691.70;1382.40;;;;;;5096328;28;20028;-75
2021/08/16 05:53:11;;;;;;;14.35;8.63;;;691.60;1382.40;;;;;;5096213;28;20071;-75
2021/08/16 05:55:37;;;;;;;14.85;8.68;;;691.70;1356.80;;;;;;5094979;28;20024;-75
2021/08/16 05:58:03;;;;;;;14.32;9.65;;;691.70;1382.40;;;;;;5096175;28;20526;-75
2021/08/16 06:00:29;;;;;;;16.88;9.57;;;691.80;1356.80;;;;;;5096190;28;20472;-76
2021/08/16 06:02:55;;;;;;;15.05;9.25;;;691.80;1382.40;;;;;;5096089;28;20107;-75
2021/08/16 06:05:21;;;;;;;13.70;9.48;;;691.80;1408.00;;;;;;5096043;28;20472;-76
2021/08/16 06:07:47;;;;;;;16.67;10.88;;;691.80;1382.40;;;;;;5094735;28;20028;-76
2021/08/16 06:10:13;;;;;;;14.10;9.27;;;691.80;1382.40;;;;;;5094647;28;20024;-76
2021/08/16 06:12:39;;;;;;;12.50;8.60;;;691.80;1382.40;;;;;;5095704;28;20052;-75
2021/08/16 06:15:06;;;;;;;16.77;9.05;;;691.90;1382.40;;;;;;5095847;28;20016;-75
2021/08/16 06:17:35;;;;;;;13.45;9.38;;;692.00;1382.40;;;;;;5094507;28;20477;-75
2021/08/16 06:20:01;;;;;;;18.55;9.40;;;692.00;1408.00;;;;;;5095719;28;20030;-76
2021/08/16 06:22:27;;;;;;;15.35;9.13;;;692.00;1382.40;;;;;;5093991;28;20036;-75
2021/08/16 06:24:53;;;;;;;14.98;9.85;;;692.00;1382.40;;;;;;5094400;28;20020;-76
2021/08/16 06:27:18;;;;;;;23.13;10.40;;;692.10;1408.00;;;;;;5094378;28;20407;-76
2021/08/16 06:29:44;;;;;;;15.25;10.20;;;692.10;1433.60;;;;;;5095643;28;20036;-76
2021/08/16 06:32:10;;;;;;;16.95;10.00;;;716.80;1433.60;;;;;;5094302;28;20024;-76
2021/08/16 06:34:40;;;;;;;16.05;10.23;;;716.80;1433.60;;;;;;5095557;28;20046;-76
2021/08/16 06:37:06;;;;;;;18.67;10.68;;;716.80;1433.60;;;;;;5095737;28;20024;-76
2021/08/16 06:39:32;;;;;;;19.33;10.40;;;692.10;1408.00;;;;;;5095435;28;20191;-75
2021/08/16 06:41:58;;;;;;;21.42;11.15;;;692.10;1408.00;;;;;;5095370;28;20020;-76
2021/08/16 06:44:26;;;;;;;19.17;11.07;;;692.10;1408.00;;;;;;5095246;28;20055;-76
2021/08/16 06:46:52;;;;;;;19.52;11.95;;;716.80;1433.60;;;;;;5095223;28;20535;-75
2021/08/16 06:49:19;;;;;;;23.98;12.05;;;716.80;1433.60;;;;;;5095238;28;20028;-76
2021/08/16 06:51:45;;;;;;;26.42;12.23;;;716.80;1433.60;;;;;;5093891;28;20059;-76
2021/08/16 06:54:11;;;;;;;22.30;12.82;;;692.00;1408.00;;;;;;5095107;28;20024;-76
2021/08/16 06:56:37;;;;;;;25.50;12.57;;;692.10;1408.00;;;;;;5095130;28;20031;-75
2021/08/16 06:59:03;;;;;;;23.65;12.15;;;716.80;1433.60;;;;;;5094962;28;20024;-77
2021/08/16 07:01:29;;;;;;;23.40;13.32;;;717.00;1408.00;;;;;;5095267;28;20094;-76
2021/08/16 07:03:57;;;;;;;23.27;12.88;;;717.20;1459.20;;;;;;5093716;28;20032;-75
2021/08/16 07:06:24;;;;;;;30.55;12.43;;;717.20;1433.60;;;;;;5093609;28;20024;-76
2021/08/16 07:08:51;;;;;;;13.60;10.82;;;717.30;1459.20;;;;;;5094842;28;20464;-76
2021/08/16 07:11:17;;;;;;;16.27;10.93;;;717.50;1408.00;;;;;;5094793;28;20035;-76
2021/08/16 07:13:43;;;;;;;20.02;11.23;;;717.60;1382.40;;;;;;5093287;28;20519;-76
2021/08/16 07:16:09;;;;;;;16.05;11.00;;;717.70;1382.40;;;;;;5094875;28;20095;-76
2021/08/16 07:18:35;;;;;;;19.02;11.98;;;742.40;1433.60;;;;;;5094671;28;20028;-75
2021/08/16 07:21:03;;;;;;;13.68;10.18;;;742.50;1433.60;;;;;;5094683;28;20070;-76
2021/08/16 07:23:29;;;;;;;16.75;10.93;;;742.60;1408.00;;;;;;5094781;28;20043;-76
2021/08/16 07:25:58;;;;;;;13.55;11.13;;;742.60;1408.00;;;;;;5094541;28;20020;-76
2021/08/16 07:28:29;;;;;;;16.52;11.10;;;742.70;1382.40;;;;;;5093217;28;20085;-76
2021/08/16 07:30:56;;;;;;;13.80;10.77;;;742.70;1382.40;;;;;;5093270;28;20053;-76
2021/08/16 07:33:22;;;;;;;10.85;8.20;;;742.70;1382.40;;;;;;5094318;28;20028;-75
2021/08/16 07:35:49;;;;;;;18.42;10.43;;;743.10;1382.40;;;;;;5094063;28;20043;-78
2021/08/16 07:38:15;;;;;;;11.52;8.90;;;742.90;1356.80;;;;;;5094389;28;20476;-78
2021/08/16 07:40:42;;;;;;;11.43;9.20;;;742.90;1382.40;;;;;;5094561;28;20158;-75
2021/08/16 07:43:08;;;;;;;7.68;6.75;;;743.00;1382.40;;;;;;5094278;28;20081;-75
2021/08/16 07:45:34;;;;;;;9.32;7.90;;;743.00;1382.40;;;;;;5094210;28;20016;-75
2021/08/16 07:48:00;;;;;;;11.15;9.02;;;743.00;1382.40;;;;;;5094112;28;20056;-75
2021/08/16 07:50:26;;;;;;;15.18;8.13;;;743.10;1356.80;;;;;;5094151;28;20020;-75
2021/08/16 07:52:54;;;;;;;9.48;6.95;;;743.10;1356.80;;;;;;5092759;28;20056;-75
2021/08/16 07:55:19;;;;;;;12.45;7.70;;;743.20;1382.40;;;;;;5094016;28;20035;-76
2021/08/16 07:57:45;;;;;;;12.65;8.43;;;743.20;1382.40;;;;;;5092691;28;20017;-75
2021/08/16 08:00:12;;;;;;;12.60;6.97;;;743.20;1356.80;;;;;;5092641;28;20047;-75
2021/08/16 08:02:45;;;;;;;16.88;6.95;;;768.00;1356.80;;;;;;5092551;28;20020;-75
2021/08/16 08:05:13;;;;;;;13.35;7.38;;;768.00;1382.40;;;;;;5093866;28;20024;-75
2021/08/16 08:07:40;;;;;;;10.18;6.85;;;768.00;1356.80;;;;;;5093816;28;20059;-73
2021/08/16 08:10:08;;;;;;;9.77;5.88;;;768.00;1356.80;;;;;;5092458;28;20024;-74
2021/08/16 08:12:33;;;;;;;10.88;7.60;;;768.10;1356.80;;;;;;5093544;28;20068;-74
2021/08/16 08:14:59;;;;;;;7.05;5.85;;;768.10;1331.20;;;;;;5093740;28;20092;-75
2021/08/16 08:17:25;;;;;;;13.90;7.60;;;768.20;1356.80;;;;;;5093677;28;20047;-76
2021/08/16 08:19:54;;;;;;;10.90;5.70;;;768.20;1331.20;;;;;;5092444;28;20364;-75
2021/08/16 08:22:21;;;;;;;7.47;4.88;;;768.20;1331.20;;;;;;5093535;28;20020;-75
2021/08/16 08:24:47;;;;;;;5.43;4.90;;;768.30;1331.20;;;;;;5093691;28;20105;-76
2021/08/16 08:27:13;;;;;;;8.50;6.47;;;768.30;1305.60;;;;;;5093647;28;20027;-75
2021/08/16 08:29:40;;;;;;;9.30;6.18;;;768.40;1305.60;;;;;;5093846;28;20024;-75
2021/08/16 08:32:07;;;;;;;7.07;5.70;;;768.40;1331.20;;;;;;5093651;28;20021;-75
2021/08/16 08:34:33;;;;;;;8.30;5.47;;;768.40;1331.20;;;;;;5093496;28;20066;-75
2021/08/16 08:37:00;;;;;;;12.27;6.07;;;768.40;1331.20;;;;;;5093568;28;20035;-75
2021/08/16 08:39:26;;;;;;;6.20;4.88;;;768.50;1331.20;;;;;;5093746;28;20074;-75
2021/08/16 08:41:58;;;;;;;8.23;6.05;;;768.50;1331.20;;;;;;5093481;28;20407;-75
2021/08/16 08:44:24;;;;;;;9.23;5.35;;;768.50;1331.20;;;;;;5093395;28;20101;-74
2021/08/16 08:46:53;;;;;;;5.78;4.78;;;768.50;1280.00;;;;;;5097263;28;20024;-74
2021/08/16 08:49:20;;;;;;;7.50;5.72;;;768.50;1305.60;;;;;;5097581;28;20032;-73
2021/08/16 08:51:46;;;;;;;7.50;4.95;;;768.50;1305.60;;;;;;5097577;28;20020;-74
2021/08/16 08:54:12;;;;;;;10.18;5.30;;;768.60;1280.00;;;;;;5097470;28;20050;-74
2021/08/16 08:56:38;;;;;;;9.00;5.20;;;768.60;1228.80;;;;;;5097516;28;20067;-73
2021/08/16 08:59:03;;;;;;;6.32;5.47;;;768.60;1254.40;;;;;;5096067;28;20032;-74
2021/08/16 09:01:30;;;;;;;5.20;4.53;;;768.60;1228.80;;;;;;5097342;28;20027;-75
2021/08/16 09:03:57;;;;;;;6.55;5.70;;;768.70;1254.40;;;;;;5097208;28;20032;-75
2021/08/16 09:06:33;;;;;;;8.77;5.60;;;768.70;1228.80;;;;;;5097179;28;20484;-74
2021/08/16 09:09:01;;;;;;;6.63;5.40;;;768.70;1280.00;;;;;;5097113;28;20028;-74
2021/08/16 09:11:28;;;;;;;8.00;6.00;;;768.70;1280.00;;;;;;5096920;28;20023;-74
2021/08/16 09:14:05;;;;;;;7.53;5.68;;;768.70;1280.00;;;;;;5097099;28;20040;-73
2021/08/16 09:16:36;;;;;;;7.43;5.78;;;768.70;1305.60;;;;;;5096965;28;20024;-76
2021/08/16 09:19:19;;;;;;;14.20;6.50;;;768.70;1280.00;;;;;;5097051;28;20056;-75
2021/08/16 09:21:54;;;;;;;7.75;5.90;;;768.70;1254.40;;;;;;5097083;28;20020;-77
2021/08/16 09:24:30;;;;;;;8.27;5.40;;;768.70;1280.00;;;;;;5095563;28;20509;-74
2021/08/16 09:27:10;;;;;;;7.47;5.25;;;793.60;1331.20;;;;;;5097133;28;20021;-74
2021/08/16 09:29:47;;;;;;;12.50;5.93;;;768.80;1305.60;;;;;;5095745;28;20491;-74
2021/08/16 09:32:13;;;;;;;11.13;5.88;;;793.60;1280.00;;;;;;5096772;28;20020;-75
2021/08/16 09:34:48;;;;;;;8.75;5.32;;;793.60;1254.40;;;;;;5095334;28;20053;-75
2021/08/16 09:37:26;;;;;;;8.13;5.20;;;793.60;1228.80;;;;;;5096612;28;20024;-75
2021/08/16 09:40:12;;;;;;;13.25;6.57;;;793.60;1280.00;;;;;;5096558;28;20049;-75
2021/08/16 09:42:48;;;;;;;9.13;5.40;;;793.60;1280.00;;;;;;5096426;28;20016;-75
2021/08/16 09:45:38;;;;;;;10.10;5.75;;;793.60;1305.60;;;;;;5096527;28;20038;-75
2021/08/16 09:48:07;;;;;;;7.90;5.60;;;793.70;1280.00;;;;;;5096747;28;20016;-74
2021/08/16 09:50:38;;;;;;;7.85;5.50;;;793.60;1280.00;;;;;;5096350;28;20020;-76
2021/08/16 09:53:10;;;;;;;10.05;5.63;;;793.80;1280.00;;;;;;5096308;28;20055;-75
2021/08/16 09:55:41;;;;;;;9.88;6.55;;;793.70;1280.00;;;;;;5096294;28;20072;-74
2021/08/16 09:58:15;;;;;;;11.10;6.10;;;793.80;1305.60;;;;;;5095343;28;20028;-77
2021/08/16 10:00:43;;;;;;;11.93;7.30;;;793.80;1305.60;;;;;;5096213;28;20551;-74
2021/08/16 10:03:11;;;;;;;12.90;6.30;;;793.80;1305.60;;;;;;5096069;28;20075;-75
2021/08/16 10:05:39;;;;;;;7.18;6.13;;;793.80;1305.60;;;;;;5096170;28;20024;-74
2021/08/16 10:08:13;;;;;;;11.27;6.07;;;793.80;1305.60;;;;;;5095963;28;20020;-73
2021/08/16 10:10:40;;;;;;;7.05;6.35;;;793.80;1305.60;;;;;;5095976;28;20024;-73
2021/08/16 10:13:08;;;;;;;9.00;6.05;;;793.80;1280.00;;;;;;5095708;28;20101;-75
2021/08/16 10:15:39;;;;;;;11.27;5.80;;;793.80;1280.00;;;;;;5095857;28;20020;-74
2021/08/16 10:18:11;;;;;;;8.52;5.45;;;793.90;1305.60;;;;;;5095872;28;20384;-74
2021/08/16 10:20:38;;;;;;;21.38;7.43;;;793.90;1305.60;;;;;;5095802;28;20027;-73
2021/08/16 10:23:16;;;;;;;29.63;6.88;;;793.90;1280.00;;;;;;5094429;28;20101;-74
2021/08/16 10:25:47;;;;;;;13.05;6.78;;;794.00;1305.60;;;;;;5096016;28;20031;-74
2021/08/16 10:28:34;;;;;;;10.00;6.63;;;793.90;1331.20;;;;;;5094421;28;20059;-74
2021/08/16 10:31:01;;;;;;;8.68;6.28;;;793.90;1280.00;;;;;;5095618;28;20108;-76
2021/08/16 10:33:27;;;;;;;16.27;7.03;;;794.00;1280.00;;;;;;5095498;28;20025;-74
2021/08/16 10:35:55;;;;;;;8.68;6.82;;;794.00;1280.00;;;;;;5095530;28;20415;-75
2021/08/16 10:38:23;;;;;;;10.07;7.22;;;794.00;1305.60;;;;;;5095421;28;20016;-74
2021/08/16 10:40:53;;;;;;;12.10;7.68;;;794.10;1280.00;;;;;;5095384;28;20013;-73
2021/08/16 10:43:20;;;;;;;12.52;6.28;;;794.10;1228.80;;;;;;5095598;28;20044;-74
2021/08/16 10:45:51;;;;;;;11.38;7.35;;;794.20;1254.40;;;;;;5095230;28;20026;-75
2021/08/16 10:48:28;;;;;;;15.70;7.45;;;794.20;1254.40;;;;;;5095314;28;20024;-75
2021/08/16 10:51:04;;;;;;;11.90;6.70;;;794.20;1228.80;;;;;;5093978;28;20070;-75
2021/08/16 10:53:31;;;;;;;9.88;6.53;;;794.20;1228.80;;;;;;5095183;28;20031;-75
2021/08/16 10:55:58;;;;;;;10.10;7.10;;;794.20;1254.40;;;;;;5095431;28;20541;-75
2021/08/16 10:58:25;;;;;;;10.38;7.38;;;794.30;1280.00;;;;;;5093781;28;20032;-74
2021/08/16 11:00:52;;;;;;;12.32;7.35;;;794.30;1254.40;;;;;;5095011;28;20024;-74
2021/08/16 11:03:24;;;;;;;22.50;8.85;;;794.30;1203.20;;;;;;5094818;28;20031;-74
2021/08/16 11:05:50;;;;;;;;;;;794.40;1203.20;;;;;;5095331;28;20016;-74
2021/08/16 11:08:16;;;;;;;15.57;7.88;;;794.40;1203.20;;;;;;5094847;28;20353;-76
2021/08/16 11:10:49;;;;;;;8.02;6.05;;;794.30;1177.60;;;;;;5094839;28;20471;-75
2021/08/16 11:13:20;;;;;;;9.63;7.38;;;794.50;1254.40;;;;;;5094540;28;20046;-74
2021/08/16 11:15:47;;;;;;;12.48;7.30;;;794.50;1254.40;;;;;;5094711;28;20028;-75
2021/08/16 11:18:16;;;;;;;9.10;7.28;;;819.20;1228.80;;;;;;5094631;28;20511;-74
2021/08/16 11:20:44;;;;;;;10.60;7.13;;;819.20;1280.00;;;;;;5094620;28;20024;-75
2021/08/16 11:23:10;;;;;;;12.18;7.10;;;819.20;1254.40;;;;;;5094594;28;20028;-75
2021/08/16 11:25:37;;;;;;;14.73;7.50;;;819.20;1254.40;;;;;;5093278;28;20024;-78
2021/08/16 11:28:04;;;;;;;11.88;6.93;;;819.20;1254.40;;;;;;5094583;28;20384;-74
2021/08/16 11:30:31;;;;;;;14.45;7.15;;;819.40;1254.40;;;;;;5093218;28;20020;-76
2021/08/16 11:32:57;;;;;;;12.05;7.65;;;819.40;1254.40;;;;;;5093170;28;20035;-74
2021/08/16 11:35:26;;;;;;;13.60;8.13;;;819.40;1203.20;;;;;;5093147;28;20412;-74
2021/08/16 11:37:53;;;;;;;14.10;8.32;;;819.40;1228.80;;;;;;5094358;28;20495;-74
2021/08/16 11:40:19;;;;;;;11.50;8.50;;;819.50;1254.40;;;;;;5092970;28;20074;-74
2021/08/16 11:42:46;;;;;;;14.43;7.70;;;819.50;1254.40;;;;;;5094077;28;20028;-74
2021/08/16 11:45:14;;;;;;;10.95;7.00;;;819.60;1280.00;;;;;;5094178;28;20020;-74
2021/08/16 11:47:47;;;;;;;16.42;10.40;;;819.60;1254.40;;;;;;5094129;28;20048;-75
2021/08/16 11:50:16;;;;;;;20.52;10.98;;;819.60;1254.40;;;;;;5092907;28;20025;-74
2021/08/16 11:52:43;;;;;;;11.05;8.80;;;819.70;1280.00;;;;;;5092738;28;20050;-75
2021/08/16 11:55:11;;;;;;;15.07;8.48;;;819.70;1254.40;;;;;;5092708;28;20028;-76
2021/08/16 11:57:37;;;;;;;19.20;9.38;;;819.80;1254.40;;;;;;5093980;28;20024;-74
2021/08/16 12:00:08;;;;;;;9.20;6.85;;;819.90;1254.40;;;;;;5092672;28;20020;-76
2021/08/16 12:02:39;;;;;;;13.90;7.65;;;819.90;1254.40;;;;;;5092592;28;20070;-74
2021/08/16 12:05:07;;;;;;;11.55;6.30;;;819.90;1203.20;;;;;;5092664;28;20105;-74
2021/08/16 12:07:33;;;;;;;10.55;6.97;;;819.90;1228.80;;;;;;5092592;28;20365;-75
2021/08/16 12:09:59;;;;;;;11.13;5.80;;;820.00;1177.60;;;;;;5092578;28;20056;-76